createdAt,value
2022-12-04T00:01:57.014Z,101598.59
2022-12-04T00:04:42.245Z,101570.66
2022-12-04T00:07:25.964Z,101585.41
2022-12-04T00:10:11.176Z,101569.78
2022-12-04T00:12:56.066Z,101550.69
2022-12-04T00:15:43.235Z,101587.28
2022-12-04T00:18:27.102Z,101590.75
2022-12-04T00:21:14.236Z,101585.53
2022-12-04T00:23:58.120Z,101591.66
2022-12-04T00:26:41.921Z,101606.47
2022-12-04T00:29:25.699Z,101590.81
2022-12-04T00:32:09.503Z,101594.25
2022-12-04T00:34:53.706Z,101596.00
2022-12-04T00:37:38.913Z,101594.19
2022-12-04T00:40:22.761Z,101598.56
2022-12-04T00:43:06.506Z,101593.38
2022-12-04T00:45:50.719Z,101582.94
2022-12-04T00:48:34.964Z,101602.09
2022-12-04T00:51:21.094Z,101585.56
2022-12-04T00:54:06.299Z,101592.53
2022-12-04T00:56:50.068Z,101596.88
2022-12-04T00:59:33.733Z,101583.81
2022-12-04T01:02:17.661Z,101595.09
2022-12-04T01:05:02.336Z,101597.75
2022-12-04T01:07:47.681Z,101572.50
2022-12-04T01:10:32.818Z,101592.50
2022-12-04T01:13:16.569Z,101583.78
2022-12-04T01:16:00.257Z,101588.16
2022-12-04T01:18:44.106Z,101579.47
2022-12-04T01:21:27.880Z,101584.69
2022-12-04T01:24:11.707Z,101582.06
2022-12-04T01:26:56.850Z,101588.91
2022-12-04T01:29:40.578Z,101571.53
2022-12-04T01:32:24.358Z,101585.53
2022-12-04T01:35:08.902Z,101571.59
2022-12-04T01:37:53.014Z,101587.31
2022-12-04T01:40:36.853Z,101548.06
2022-12-04T01:43:22.620Z,101575.97
2022-12-04T01:46:07.730Z,101580.34
2022-12-04T01:48:54.067Z,101585.56
2022-12-04T01:51:43.843Z,101524.59
2022-12-04T01:54:31.443Z,101580.31
2022-12-04T01:57:17.569Z,101575.13
2022-12-04T02:00:08.192Z,101580.31
2022-12-04T02:02:52.159Z,101562.03
2022-12-04T02:05:36.090Z,101521.97
2022-12-04T02:08:20.496Z,101519.41
2022-12-04T02:11:13.532Z,101562.06
2022-12-04T02:14:26.543Z,101567.28
2022-12-04T02:17:21.761Z,101569.00
2022-12-04T02:20:16.257Z,101528.97
2022-12-04T02:23:24.404Z,101574.22
2022-12-04T02:26:31.759Z,101530.69
2022-12-04T02:29:25.022Z,101524.56
2022-12-04T02:32:18.707Z,101577.66
2022-12-04T02:35:07.496Z,101580.34
2022-12-04T02:37:55.995Z,101578.53
2022-12-04T02:40:46.573Z,101573.28
2022-12-04T02:43:38.090Z,101570.75
2022-12-04T02:46:29.749Z,101566.34
2022-12-04T02:49:18.766Z,101582.09
2022-12-04T02:52:04.599Z,101573.34
2022-12-04T02:54:55.408Z,101572.47
2022-12-04T02:57:44.434Z,101579.41
2022-12-04T03:00:30.386Z,101559.41
2022-12-04T03:03:21.870Z,101573.28
2022-12-04T03:06:09.277Z,101568.09
2022-12-04T03:08:59.824Z,101563.75
2022-12-04T03:11:48.424Z,101568.06
2022-12-04T03:14:36.228Z,101555.00
2022-12-04T03:17:24.281Z,101563.75
2022-12-04T03:20:14.462Z,101513.19
2022-12-04T03:23:03.677Z,101568.09
2022-12-04T03:25:54.435Z,101566.41
2022-12-04T03:28:47.953Z,101567.28
2022-12-04T03:31:40.715Z,101558.56
2022-12-04T03:34:29.091Z,101534.19
2022-12-04T03:37:18.468Z,101545.50
2022-12-04T03:40:08.229Z,101562.94
2022-12-04T03:43:01.220Z,101555.06
2022-12-04T03:45:49.429Z,101567.25
2022-12-04T03:48:41.020Z,101380.19
2022-12-04T03:51:33.498Z,101565.47
2022-12-04T03:54:23.880Z,101571.59
2022-12-04T03:57:15.638Z,101562.06
2022-12-04T04:00:06.213Z,101561.19
2022-12-04T04:02:54.950Z,101568.16
2022-12-04T04:05:43.129Z,101527.22
2022-12-04T04:08:34.229Z,101567.22
2022-12-04T04:11:24.870Z,101518.53
2022-12-04T04:14:30.662Z,101567.22
2022-12-04T04:17:38.648Z,101557.66
2022-12-04T04:20:45.541Z,101566.41
2022-12-04T04:23:50.150Z,101575.09
2022-12-04T04:26:40.352Z,101573.38
2022-12-04T04:29:24.099Z,101589.91
2022-12-04T04:32:15.254Z,101582.94
2022-12-04T04:35:04.877Z,101580.34
2022-12-04T04:37:56.616Z,101593.41
2022-12-04T04:40:47.886Z,101594.25
2022-12-04T04:43:38.223Z,101603.84
2022-12-04T04:46:26.805Z,101603.84
2022-12-04T04:49:13.568Z,101609.91
2022-12-04T04:51:58.570Z,101607.31
2022-12-04T04:54:43.112Z,101615.16
2022-12-04T04:57:28.617Z,101612.53
2022-12-04T05:00:16.929Z,101598.63
2022-12-04T05:03:00.902Z,101606.44
2022-12-04T05:05:44.758Z,101597.75
2022-12-04T05:08:28.572Z,101616.88
2022-12-04T05:11:14.182Z,101565.47
2022-12-04T05:13:58.071Z,101600.31
2022-12-04T05:16:43.302Z,101593.34
2022-12-04T05:19:44.746Z,101555.03
2022-12-04T05:22:30.443Z,101583.78
2022-12-04T05:25:14.265Z,101593.38
2022-12-04T05:27:58.363Z,101602.06
2022-12-04T05:30:42.715Z,101584.63
2022-12-04T05:33:28.113Z,101592.44
2022-12-04T05:36:13.326Z,101602.03
2022-12-04T05:38:57.084Z,101609.88
2022-12-04T05:41:40.973Z,101579.34
2022-12-04T05:44:25.175Z,101607.28
2022-12-04T05:47:09.205Z,101562.00
2022-12-04T05:49:54.685Z,101602.91
2022-12-04T05:52:38.942Z,101609.91
2022-12-04T05:55:22.722Z,101622.13
2022-12-04T05:58:06.596Z,101610.78
2022-12-04T06:00:50.316Z,101622.94
2022-12-04T06:03:34.161Z,101618.63
2022-12-04T06:06:22.671Z,101616.00
2022-12-04T06:09:08.423Z,101619.50
2022-12-04T06:11:52.115Z,101629.97
2022-12-04T06:14:39.539Z,101639.56
2022-12-04T06:17:23.873Z,101621.28
2022-12-04T06:20:11.774Z,101629.97
2022-12-04T06:22:57.189Z,101634.31
2022-12-04T06:25:40.970Z,101641.28
2022-12-04T06:28:24.710Z,101638.69
2022-12-04T06:31:11.159Z,101643.91
2022-12-04T06:33:55.458Z,101643.91
2022-12-04T06:36:39.274Z,101636.94
2022-12-04T06:39:24.424Z,101628.25
2022-12-04T06:42:08.488Z,101650.88
2022-12-04T06:44:52.107Z,101643.03
2022-12-04T06:47:36.379Z,101629.97
2022-12-04T06:50:20.376Z,101636.06
2022-12-04T06:53:08.307Z,101602.97
2022-12-04T06:55:53.903Z,101643.91
2022-12-04T06:58:38.742Z,101642.16
2022-12-04T07:01:24.438Z,101628.22
2022-12-04T07:04:08.388Z,101651.78
2022-12-04T07:06:52.312Z,101629.09
2022-12-04T07:09:36.125Z,101629.09
2022-12-04T07:12:21.323Z,101641.31
2022-12-04T07:15:05.750Z,101567.25
2022-12-04T07:17:49.645Z,101625.59
2022-12-04T07:20:33.541Z,101643.91
2022-12-04T07:23:17.358Z,101635.19
2022-12-04T07:26:05.820Z,101621.25
2022-12-04T07:28:51.545Z,101640.44
2022-12-04T07:31:35.963Z,101631.69
2022-12-04T07:34:20.053Z,101639.53
2022-12-04T07:37:04.385Z,101652.59
2022-12-04T07:39:48.212Z,101632.56
2022-12-04T07:42:31.952Z,101641.28
2022-12-04T07:45:17.294Z,101663.06
2022-12-04T07:48:01.130Z,101658.59
2022-12-04T07:50:45.762Z,101637.78
2022-12-04T07:53:29.535Z,101654.31
2022-12-04T07:56:14.353Z,101659.53
2022-12-04T07:58:59.557Z,101614.22
2022-12-04T08:01:45.083Z,101645.53
2022-12-04T08:04:29.049Z,101656.81
2022-12-04T08:07:12.903Z,101647.34
2022-12-04T08:09:57.096Z,101638.56
2022-12-04T08:12:41.259Z,101653.41
2022-12-04T08:15:25.072Z,101615.94
2022-12-04T08:18:10.899Z,101648.94
2022-12-04T08:20:55.197Z,101616.75
2022-12-04T08:23:39.935Z,101650.75
2022-12-04T08:26:26.015Z,101640.09
2022-12-04T08:29:11.183Z,101633.13
2022-12-04T08:31:55.999Z,101641.91
2022-12-04T08:34:41.784Z,101598.34
2022-12-04T08:37:29.307Z,101654.09
2022-12-04T08:40:18.651Z,101579.25
2022-12-04T08:43:07.665Z,101615.75
2022-12-04T08:45:59.220Z,101642.72
2022-12-04T08:48:45.140Z,101637.41
2022-12-04T08:51:39.010Z,101575.66
2022-12-04T08:54:25.722Z,101581.59
2022-12-04T08:57:10.584Z,101614.72
2022-12-04T08:59:55.684Z,101633.03
2022-12-04T09:02:44.913Z,101625.13
2022-12-04T09:05:32.115Z,101613.03
2022-12-04T09:08:27.189Z,101612.88
2022-12-04T09:11:16.111Z,101566.78
2022-12-04T09:14:07.930Z,101589.38
2022-12-04T09:16:53.460Z,101594.47
2022-12-04T09:19:44.031Z,101600.56
2022-12-04T09:22:51.334Z,101592.75
2022-12-04T09:25:41.354Z,101595.13
2022-12-04T09:31:26.566Z,101592.59
2022-12-04T09:34:11.728Z,101566.47
2022-12-04T09:36:56.951Z,101549.06
2022-12-04T09:39:42.947Z,101523.56
2022-12-04T09:42:38.036Z,101575.66
2022-12-04T09:45:26.236Z,101539.34
2022-12-04T09:48:14.581Z,101580.72
2022-12-04T09:51:00.750Z,101565.75
2022-12-04T09:53:49.701Z,101566.09
2022-12-04T09:56:35.263Z,101579.94
2022-12-04T09:59:25.619Z,101554.41
2022-12-04T10:02:30.735Z,101539.56
2022-12-04T10:05:22.720Z,101529.78
2022-12-04T10:08:17.550Z,101564.06
2022-12-04T10:11:11.432Z,101563.91
2022-12-04T10:14:16.601Z,101555.09
2022-12-04T10:17:32.478Z,101558.28
2022-12-04T10:20:30.045Z,101562.97
2022-12-04T10:23:25.454Z,101529.84
2022-12-04T10:26:18.100Z,101562.88
2022-12-04T10:29:06.436Z,101520.19
2022-12-04T10:31:54.485Z,101557.34
2022-12-04T10:34:45.635Z,101556.47
2022-12-04T10:37:37.458Z,101558.28
2022-12-04T10:40:28.953Z,101540.81
2022-12-04T10:43:20.600Z,101560.09
2022-12-04T10:46:07.253Z,101543.19
2022-12-04T10:48:55.738Z,101535.16
2022-12-04T10:51:44.708Z,101534.66
2022-12-04T10:54:35.817Z,101471.56
2022-12-04T10:57:21.232Z,101479.09
2022-12-04T11:00:26.292Z,101534.13
2022-12-04T11:03:24.714Z,101519.00
2022-12-04T11:06:12.738Z,101525.06
2022-12-04T11:09:03.389Z,101508.00
2022-12-04T11:11:48.914Z,101493.44
2022-12-04T11:14:34.378Z,101516.25
2022-12-04T11:17:22.616Z,101507.31
2022-12-04T11:20:15.093Z,101515.34
2022-12-04T11:23:01.664Z,101517.28
2022-12-04T11:25:51.725Z,101507.75
2022-12-04T11:28:42.675Z,101508.31
2022-12-04T11:31:28.503Z,101504.81
2022-12-04T11:34:21.178Z,101511.91
2022-12-04T11:37:08.879Z,101490.03
2022-12-04T11:39:56.458Z,101517.88
2022-12-04T11:42:43.377Z,101511.53
2022-12-04T11:45:27.748Z,101483.44
2022-12-04T11:48:18.359Z,101507.13
2022-12-04T11:51:19.071Z,101502.19
2022-12-04T11:54:12.379Z,101494.50
2022-12-04T11:57:09.155Z,101505.50
2022-12-04T12:00:10.050Z,101487.34
2022-12-04T12:03:08.690Z,101501.59
2022-12-04T12:06:09.288Z,101497.19
2022-12-04T12:09:10.769Z,101493.91
2022-12-04T12:12:03.312Z,101463.34
2022-12-04T12:15:00.515Z,101489.09
2022-12-04T12:17:52.842Z,101493.72
2022-12-04T12:20:43.812Z,101502.19
2022-12-04T12:23:45.760Z,101445.81
2022-12-04T12:26:39.860Z,101488.09
2022-12-04T12:29:41.042Z,101502.53
2022-12-04T12:32:39.605Z,101504.63
2022-12-04T12:35:32.097Z,101474.94
2022-12-04T12:38:21.931Z,101507.84
2022-12-04T12:41:13.169Z,101499.94
2022-12-04T12:44:04.975Z,101502.47
2022-12-04T12:46:54.292Z,101489.78
2022-12-04T12:49:48.607Z,101498.44
2022-12-04T12:52:41.766Z,101465.59
2022-12-04T12:55:30.591Z,101498.47
2022-12-04T12:58:19.003Z,101500.88
2022-12-04T13:01:10.413Z,101453.47
2022-12-04T13:04:07.224Z,101450.91
2022-12-04T13:07:00.954Z,101457.59
2022-12-04T13:09:54.071Z,101486.06
2022-12-04T13:12:47.204Z,101455.94
2022-12-04T13:15:40.520Z,101456.84
2022-12-04T13:18:30.244Z,101502.84
2022-12-04T13:21:30.853Z,101495.69
2022-12-04T13:24:39.662Z,101506.25
2022-12-04T13:27:34.866Z,101465.59
2022-12-04T13:30:22.689Z,101508.22
2022-12-04T13:33:53.604Z,101497.75
2022-12-04T13:36:58.366Z,101496.69
2022-12-04T13:40:28.966Z,101478.44
2022-12-04T13:43:27.407Z,101498.22
2022-12-04T13:46:30.987Z,101452.31
2022-12-04T13:49:29.147Z,101490.56
2022-12-04T13:52:25.838Z,101458.38
2022-12-04T13:55:26.732Z,101506.25
2022-12-04T13:58:30.735Z,101520.19
2022-12-04T14:01:28.173Z,101474.16
2022-12-04T14:04:26.601Z,101523.88
2022-12-04T14:07:27.328Z,101473.06
2022-12-04T14:10:30.191Z,101514.72
2022-12-04T14:13:22.316Z,101512.72
2022-12-04T14:16:21.392Z,101512.72
2022-12-04T14:19:08.599Z,101504.44
2022-12-04T14:21:54.368Z,101503.66
2022-12-04T14:24:40.077Z,101516.56
2022-12-04T14:27:35.250Z,101519.22
2022-12-04T14:30:21.985Z,101521.72
2022-12-04T14:33:13.585Z,101478.38
2022-12-04T14:36:03.899Z,101521.94
2022-12-04T14:38:50.508Z,101506.81
2022-12-04T14:41:34.567Z,101522.59
2022-12-04T14:44:26.908Z,101484.50
2022-12-04T14:47:23.410Z,101509.41
2022-12-04T14:50:29.476Z,101469.81
2022-12-04T14:53:25.131Z,101469.72
2022-12-04T14:56:25.897Z,101518.63
2022-12-04T14:59:18.028Z,101487.16
2022-12-04T15:02:02.148Z,101483.91
2022-12-04T15:04:47.711Z,101484.38
2022-12-04T15:07:33.691Z,101518.25
2022-12-04T15:10:41.509Z,101525.28
2022-12-04T15:13:29.280Z,101474.69
2022-12-04T15:16:18.674Z,101527.94
2022-12-04T15:19:02.811Z,101518.00
2022-12-04T15:21:46.860Z,101518.19
2022-12-04T15:24:32.654Z,101511.84
2022-12-04T15:27:20.709Z,101517.44
2022-12-04T15:30:05.785Z,101469.53
2022-12-04T15:32:53.102Z,101511.84
2022-12-04T15:35:39.161Z,101479.13
2022-12-04T15:38:23.400Z,101519.84
2022-12-04T15:41:26.213Z,101466.91
2022-12-04T15:44:24.098Z,101493.06
2022-12-04T15:47:18.955Z,101525.19
2022-12-04T15:50:10.793Z,101487.94
2022-12-04T15:52:59.894Z,101478.28
2022-12-04T15:55:52.410Z,101482.66
2022-12-04T15:58:40.028Z,101526.09
2022-12-04T16:01:24.256Z,101481.25
2022-12-04T16:04:22.551Z,101522.91
2022-12-04T16:07:21.873Z,101521.38
2022-12-04T16:10:22.740Z,101513.38
2022-12-04T16:13:07.363Z,101519.53
2022-12-04T16:15:52.901Z,101482.22
2022-12-04T16:18:37.021Z,101519.69
2022-12-04T16:21:24.297Z,101522.25
2022-12-04T16:24:11.704Z,101470.09
2022-12-04T16:26:57.217Z,101470.97
2022-12-04T16:29:41.229Z,101495.25
2022-12-04T16:32:32.077Z,101521.41
2022-12-04T16:35:17.853Z,101514.31
2022-12-04T16:38:01.798Z,101531.81
2022-12-04T16:40:46.940Z,101523.97
2022-12-04T16:43:30.906Z,101449.28
2022-12-04T16:46:16.975Z,101475.34
2022-12-04T16:49:07.280Z,101519.69
2022-12-04T16:51:51.713Z,101504.13
2022-12-04T16:54:35.955Z,101517.88
2022-12-04T16:57:19.853Z,101484.06
2022-12-04T17:00:03.945Z,101478.84
2022-12-04T17:02:48.504Z,101495.47
2022-12-04T17:05:35.934Z,101484.06
2022-12-04T17:08:20.158Z,101553.75
2022-12-04T17:11:04.269Z,101527.66
2022-12-04T17:13:48.344Z,101504.13
2022-12-04T17:16:32.337Z,101533.63
2022-12-04T17:19:16.761Z,101533.69
2022-12-04T17:22:02.519Z,101519.84
2022-12-04T17:24:52.881Z,101478.94
2022-12-04T17:27:38.848Z,101523.19
2022-12-04T17:30:22.911Z,101521.34
2022-12-04T17:33:07.303Z,101487.53
2022-12-04T17:35:50.992Z,101477.09
2022-12-04T17:38:37.852Z,101505.75
2022-12-04T17:41:21.610Z,101501.44
2022-12-04T17:44:05.859Z,101497.09
2022-12-04T17:46:50.334Z,101497.22
2022-12-04T17:49:34.820Z,101507.47
2022-12-04T17:52:22.507Z,101493.56
2022-12-04T17:55:09.071Z,101502.28
2022-12-04T17:57:53.326Z,101503.09
2022-12-04T18:00:38.179Z,101489.09
2022-12-04T18:03:22.270Z,101506.66
2022-12-04T18:06:13.629Z,101504.00
2022-12-04T18:08:58.373Z,101504.81
2022-12-04T18:11:45.695Z,101502.28
2022-12-04T18:14:30.917Z,101496.00
2022-12-04T18:17:17.750Z,101477.13
2022-12-04T18:20:05.009Z,101490.13
2022-12-04T18:22:49.747Z,101465.84
2022-12-04T18:25:34.042Z,101490.25
2022-12-04T18:28:19.570Z,101458.91
2022-12-04T18:31:05.337Z,101435.47
2022-12-04T18:33:49.493Z,101478.91
2022-12-04T18:36:33.781Z,101481.50
2022-12-04T18:39:19.971Z,101490.19
2022-12-04T18:42:03.872Z,101480.63
2022-12-04T18:44:49.692Z,101475.44
2022-12-04T18:47:33.542Z,101486.59
2022-12-04T18:50:17.756Z,101455.38
2022-12-04T18:53:02.000Z,101489.38
2022-12-04T18:55:45.784Z,101472.69
2022-12-04T18:58:29.646Z,101504.22
2022-12-04T19:01:16.748Z,101482.38
2022-12-04T19:04:03.166Z,101471.03
2022-12-04T19:06:50.630Z,101457.25
2022-12-04T19:10:09.573Z,101502.56
2022-12-04T19:12:39.903Z,101456.31
2022-12-04T19:15:24.026Z,101481.66
2022-12-04T19:18:09.403Z,101506.03
2022-12-04T19:20:53.613Z,101493.88
2022-12-04T19:23:37.517Z,101500.81
2022-12-04T19:26:22.732Z,101476.50
2022-12-04T19:29:08.625Z,101495.63
2022-12-04T19:31:57.740Z,101504.31
2022-12-04T19:34:44.673Z,101476.44
2022-12-04T19:37:29.031Z,101499.00
2022-12-04T19:40:14.752Z,101500.78
2022-12-04T19:43:02.818Z,101485.13
2022-12-04T19:45:49.473Z,101509.53
2022-12-04T19:48:33.683Z,101495.56
2022-12-04T19:51:20.308Z,101462.50
2022-12-04T19:54:04.510Z,101484.25
2022-12-04T19:56:52.655Z,101497.31
2022-12-04T19:59:39.507Z,101491.31
2022-12-04T20:02:25.852Z,101503.41
2022-12-04T20:05:10.546Z,101511.25
2022-12-04T20:10:40.969Z,101491.22
2022-12-04T20:13:25.696Z,101492.03
2022-12-04T20:16:12.088Z,101471.31
2022-12-04T20:18:56.181Z,101504.31
2022-12-04T20:21:40.222Z,101509.53
2022-12-04T20:24:25.432Z,101490.41
2022-12-04T20:27:09.292Z,101516.56
2022-12-04T20:29:53.909Z,101447.78
2022-12-04T20:32:37.887Z,101507.84
2022-12-04T20:35:21.622Z,101485.22
2022-12-04T20:38:05.973Z,101472.13
2022-12-04T20:40:51.132Z,101493.94
2022-12-04T20:43:35.241Z,101490.41
2022-12-04T20:46:20.946Z,101486.03
2022-12-04T20:49:07.117Z,101486.91
2022-12-04T20:51:51.823Z,101480.84
2022-12-04T20:54:41.381Z,101487.75
2022-12-04T20:57:26.815Z,101441.66
2022-12-04T21:00:11.632Z,101478.25
2022-12-04T21:02:55.465Z,101476.47
2022-12-04T21:05:39.462Z,101472.09
2022-12-04T21:08:43.212Z,101467.75
2022-12-04T21:11:30.076Z,101473.81
2022-12-04T21:14:34.484Z,101466.03
2022-12-04T21:17:20.489Z,101450.38
2022-12-04T21:20:07.875Z,101447.72
2022-12-04T21:22:52.108Z,101470.41
2022-12-04T21:25:37.241Z,101445.19
2022-12-04T21:28:21.159Z,101445.13
2022-12-04T21:31:07.489Z,101447.72
2022-12-04T21:33:51.617Z,101446.81
2022-12-04T21:36:35.816Z,101451.13
2022-12-04T21:39:19.817Z,101445.09
2022-12-04T21:42:21.225Z,101431.09
2022-12-04T21:45:07.664Z,101434.63
2022-12-04T21:47:54.783Z,101418.03
2022-12-04T21:50:38.794Z,101405.97
2022-12-04T21:53:22.889Z,101451.16
2022-12-04T21:56:07.478Z,101416.28
2022-12-04T21:58:51.536Z,101418.06
2022-12-04T22:01:35.473Z,101418.88
2022-12-04T22:04:21.379Z,101404.97
2022-12-04T22:07:05.057Z,101404.94
2022-12-04T22:09:48.876Z,101404.97
2022-12-04T22:12:49.028Z,101401.44
2022-12-04T22:15:39.152Z,101397.97
2022-12-04T22:18:23.189Z,101402.31
2022-12-04T22:21:09.983Z,101405.81
2022-12-04T22:23:56.708Z,101394.50
2022-12-04T22:26:40.586Z,101394.47
2022-12-04T22:29:49.096Z,101394.44
2022-12-04T22:32:28.227Z,101402.34
2022-12-04T22:35:12.112Z,101391.94
2022-12-04T22:37:57.157Z,101384.03
2022-12-04T22:40:41.074Z,101358.00
2022-12-04T22:43:24.829Z,101367.50
2022-12-04T22:46:08.766Z,101363.22
2022-12-04T22:48:52.530Z,101376.34
2022-12-04T22:51:36.370Z,101370.25
2022-12-04T22:54:21.532Z,101378.03
2022-12-04T22:57:05.538Z,101368.44
2022-12-04T22:59:49.433Z,101342.38
2022-12-04T23:02:34.257Z,101385.88
2022-12-04T23:05:18.217Z,101391.94
2022-12-04T23:08:02.141Z,101378.91
2022-12-04T23:10:47.235Z,101364.91
2022-12-04T23:13:31.025Z,101385.00
2022-12-04T23:16:19.837Z,101368.44
2022-12-04T23:19:05.016Z,101386.69
2022-12-04T23:21:56.601Z,101338.06
2022-12-04T23:24:41.587Z,101340.75
2022-12-04T23:27:27.158Z,101397.19
2022-12-04T23:30:11.345Z,101370.28
2022-12-04T23:32:55.299Z,101379.75
2022-12-04T23:35:39.266Z,101398.88
2022-12-04T23:38:24.324Z,101333.69
2022-12-04T23:41:12.001Z,101396.28
2022-12-04T23:43:57.854Z,101387.53
2022-12-04T23:46:42.072Z,101383.22
2022-12-04T23:49:26.092Z,101347.72
2022-12-04T23:52:10.105Z,101352.88
2022-12-04T23:54:54.166Z,101340.63
2022-12-04T23:57:38.270Z,101363.34
